createdAt,value
2018-07-23T00:00:29.015Z,17.6
2018-07-23T00:05:31.472Z,17.5
2018-07-23T00:10:33.724Z,17.4
2018-07-23T00:15:36.245Z,17.3
2018-07-23T00:20:38.651Z,17.3
2018-07-23T00:25:41.203Z,17.2
2018-07-23T00:30:43.593Z,17.1
2018-07-23T00:35:45.998Z,17.1
2018-07-23T00:40:48.434Z,17
2018-07-23T00:45:51.076Z,16.9
2018-07-23T00:50:53.330Z,16.8
2018-07-23T00:55:55.770Z,16.8
2018-07-23T01:00:58.210Z,16.7
2018-07-23T01:06:00.638Z,16.7
2018-07-23T01:11:03.178Z,16.6
2018-07-23T01:16:05.876Z,16.6
2018-07-23T01:21:08.092Z,16.5
2018-07-23T01:26:10.419Z,16.4
2018-07-23T01:31:12.837Z,16.3
2018-07-23T01:36:15.348Z,16.2
2018-07-23T01:41:17.762Z,16
2018-07-23T01:46:20.193Z,15.9
2018-07-23T01:51:22.846Z,15.8
2018-07-23T01:56:25.101Z,15.7
2018-07-23T02:01:27.515Z,15.7
2018-07-23T02:06:30.101Z,15.6
2018-07-23T02:11:32.455Z,15.5
2018-07-23T02:16:34.865Z,15.5
2018-07-23T02:21:37.390Z,15.3
2018-07-23T02:26:44.771Z,15.3
2018-07-23T02:31:42.215Z,15.2
2018-07-23T02:36:44.636Z,15.2
2018-07-23T02:41:47.106Z,15.2
2018-07-23T02:46:49.524Z,15.1
2018-07-23T02:51:52.013Z,15.1
2018-07-23T02:56:54.421Z,15
2018-07-23T03:01:57.212Z,14.8
2018-07-23T03:06:59.681Z,14.8
2018-07-23T03:12:03.298Z,14.9
2018-07-23T03:17:04.503Z,14.9
2018-07-23T03:22:06.672Z,15
2018-07-23T03:27:09.218Z,15
2018-07-23T03:32:12.114Z,15.1
2018-07-23T03:37:14.001Z,15.1
2018-07-23T03:42:17.003Z,15.2
2018-07-23T03:47:18.901Z,15.4
2018-07-23T03:52:21.677Z,15.5
2018-07-23T03:57:24.669Z,15.6
2018-07-23T04:02:27.290Z,15.7
2018-07-23T04:07:28.721Z,15.7
2018-07-23T04:17:33.613Z,15.9
2018-07-23T04:22:35.986Z,16.1
2018-07-23T04:27:38.440Z,16.2
2018-07-23T04:32:41.051Z,16.4
2018-07-23T04:37:43.387Z,16.6
2018-07-23T04:42:45.801Z,16.7
2018-07-23T04:47:48.224Z,16.9
2018-07-23T04:52:50.714Z,17.2
2018-07-23T04:57:53.215Z,17.5
2018-07-23T05:02:55.811Z,17.8
2018-07-23T05:07:58.241Z,18.1
2018-07-23T05:13:00.591Z,18.4
2018-07-23T05:18:02.913Z,19
2018-07-23T05:23:05.353Z,19.7
2018-07-23T05:28:07.881Z,20.4
2018-07-23T05:33:10.290Z,20.8
2018-07-23T05:38:12.776Z,20.8
2018-07-23T05:43:15.164Z,21
2018-07-23T05:48:20.339Z,21.3
2018-07-23T05:53:20.106Z,21.9
2018-07-23T05:58:22.489Z,24.3
2018-07-23T06:03:24.938Z,26.9
2018-07-23T06:08:27.377Z,28.7
2018-07-23T06:13:30.269Z,30.1
2018-07-23T06:18:32.272Z,31.7
2018-07-23T06:23:34.707Z,32.9
2018-07-23T06:28:37.653Z,33.6
2018-07-23T06:33:39.634Z,33.2
2018-07-23T06:38:42.062Z,32.8
2018-07-23T06:43:45.087Z,31.9
2018-07-23T06:48:46.960Z,31.8
2018-07-23T06:53:49.412Z,32.6
2018-07-23T06:58:51.852Z,32.8
2018-07-23T07:03:54.512Z,33
2018-07-23T07:08:56.729Z,31.7
2018-07-23T07:13:59.235Z,30.4
2018-07-23T07:19:02.155Z,31.3
2018-07-23T07:24:04.120Z,33.2
2018-07-23T07:29:06.510Z,33.6
2018-07-23T07:34:09.520Z,34.1
2018-07-23T07:39:11.576Z,33.9
2018-07-23T07:54:18.780Z,35
2018-07-23T07:59:21.201Z,34.8
2018-07-23T08:04:23.652Z,34
2018-07-23T08:09:26.096Z,33.7
2018-07-23T08:14:28.563Z,33
2018-07-23T08:19:31.017Z,31.6
2018-07-23T08:24:33.435Z,30.4
2018-07-23T08:29:36.009Z,29.6
2018-07-23T08:39:40.827Z,30.5
2018-07-23T08:44:43.302Z,31
2018-07-23T08:49:45.676Z,31.7
2018-07-23T08:54:48.108Z,31.6
2018-07-23T08:59:50.676Z,32
2018-07-23T09:04:53.057Z,32.5
2018-07-23T09:09:55.462Z,32.4
2018-07-23T09:14:57.957Z,32.3
2018-07-23T09:20:00.565Z,32.1
2018-07-23T09:25:02.872Z,31.5
2018-07-23T09:30:05.638Z,30.9
2018-07-23T09:35:07.820Z,29.3
2018-07-23T09:40:10.370Z,28.3
2018-07-23T09:45:13.020Z,27.5
2018-07-23T09:50:15.483Z,27.5
2018-07-23T09:55:17.527Z,27.8
2018-07-23T10:00:20.067Z,27.7
2018-07-23T10:05:22.378Z,26.8
2018-07-23T10:10:24.910Z,26.8
2018-07-23T10:15:27.339Z,27.2
2018-07-23T10:20:29.853Z,27.5
2018-07-23T10:25:32.221Z,27.9
2018-07-23T10:30:34.720Z,28.1
2018-07-23T10:35:37.084Z,27.7
2018-07-23T10:40:39.515Z,27.8
2018-07-23T10:45:42.186Z,27.1
2018-07-23T10:50:44.404Z,26.9
2018-07-23T10:55:46.845Z,27.8
2018-07-23T11:00:49.385Z,27.8
2018-07-23T11:05:51.746Z,26.8
2018-07-23T11:10:54.249Z,26.6
2018-07-23T11:15:56.936Z,27.1
2018-07-23T11:20:59.138Z,27.2
2018-07-23T11:26:01.806Z,26.7
2018-07-23T11:31:04.035Z,26.6
2018-07-23T11:36:06.689Z,27.3
2018-07-23T11:41:08.897Z,27.7
2018-07-23T11:46:24.423Z,27.5
2018-07-23T11:51:14.038Z,27.3
2018-07-23T11:56:16.277Z,27.2
2018-07-23T12:01:18.673Z,27.5
2018-07-23T12:06:21.126Z,27.7
2018-07-23T12:11:23.591Z,27.7
2018-07-23T12:16:26.015Z,27.2
2018-07-23T12:21:28.452Z,27.1
2018-07-23T12:26:31.200Z,27.4
2018-07-23T12:31:33.395Z,27.7
2018-07-23T12:36:35.773Z,27.6
2018-07-23T12:41:38.268Z,28.1
2018-07-23T12:46:40.726Z,28.3
2018-07-23T12:51:43.199Z,28.5
2018-07-23T12:56:45.619Z,28
2018-07-23T13:01:48.046Z,27
2018-07-23T13:06:50.478Z,26.4
2018-07-23T13:11:53.070Z,26.7
2018-07-23T13:16:55.371Z,27
2018-07-23T13:21:57.804Z,27.8
2018-07-23T13:32:02.938Z,27.9
2018-07-23T13:37:05.152Z,27
2018-07-23T13:42:07.771Z,26.4
2018-07-23T13:47:10.557Z,26.4
2018-07-23T13:52:12.562Z,26.4
2018-07-23T13:57:15.088Z,26.8
2018-07-23T14:02:17.453Z,27.5
2018-07-23T14:12:22.301Z,27
2018-07-23T14:17:24.714Z,26.7
2018-07-23T14:22:27.254Z,26.7
2018-07-23T14:27:29.679Z,26.4
2018-07-23T14:32:32.183Z,26.4
2018-07-23T14:37:34.516Z,26.6
2018-07-23T14:42:36.972Z,27
2018-07-23T14:47:39.444Z,27.4
2018-07-23T14:52:41.836Z,27.1
2018-07-23T14:57:44.339Z,27
2018-07-23T15:02:46.790Z,26.5
2018-07-23T15:07:49.304Z,26.3
2018-07-23T15:12:51.769Z,26.4
2018-07-23T15:17:54.127Z,26.3
2018-07-23T15:22:56.639Z,26.6
2018-07-23T15:27:58.998Z,26.9
2018-07-23T15:33:01.880Z,27.1
2018-07-23T15:38:03.866Z,27.3
2018-07-23T15:43:06.482Z,27.1
2018-07-23T15:48:08.972Z,27
2018-07-23T15:53:11.207Z,27
2018-07-23T15:58:13.776Z,26.9
2018-07-23T16:03:17.101Z,26.8
2018-07-23T16:08:18.609Z,26.9
2018-07-23T16:13:21.044Z,26.9
2018-07-23T16:18:23.543Z,26.8
2018-07-23T16:23:25.913Z,26.6
2018-07-23T16:28:28.451Z,26.3
2018-07-23T16:33:31.119Z,26.4
2018-07-23T16:38:33.297Z,26.4
2018-07-23T16:43:35.894Z,26.4
2018-07-23T16:48:38.122Z,26.3
2018-07-23T16:53:40.779Z,26.1
2018-07-23T16:58:43.295Z,26
2018-07-23T17:03:45.511Z,26
2018-07-23T17:08:47.943Z,25.8
2018-07-23T17:13:50.468Z,25.8
2018-07-23T17:18:53.251Z,25.7
2018-07-23T17:23:55.365Z,25.6
2018-07-23T17:28:57.784Z,25.5
2018-07-23T17:34:00.131Z,25.4
2018-07-23T17:39:02.627Z,25.3
2018-07-23T17:44:05.093Z,25.2
2018-07-23T17:49:07.566Z,25
2018-07-23T17:54:09.918Z,24.9
2018-07-23T17:59:12.534Z,24.7
2018-07-23T18:04:15.240Z,24.6
2018-07-23T18:09:17.259Z,24.4
2018-07-23T18:14:19.701Z,24.2
2018-07-23T18:19:22.362Z,24
2018-07-23T18:24:24.623Z,23.8
2018-07-23T18:29:27.311Z,23.5
2018-07-23T18:34:29.861Z,23.3
2018-07-23T18:39:32.199Z,23.1
2018-07-23T18:44:34.888Z,22.8
2018-07-23T18:49:36.985Z,22.6
2018-07-23T18:54:39.329Z,22.4
2018-07-23T18:59:41.832Z,22.1
2018-07-23T19:04:44.326Z,21.7
2018-07-23T19:09:46.654Z,21.4
2018-07-23T19:49:03.562Z,19.2
2018-07-23T19:54:06.153Z,19
2018-07-23T19:59:08.435Z,18.8
2018-07-23T20:04:10.883Z,18.7
2018-07-23T20:09:13.529Z,18.5
2018-07-23T20:14:15.759Z,18.4
2018-07-23T20:19:18.674Z,18.3
2018-07-23T20:24:20.921Z,18.1
2018-07-23T20:29:23.108Z,18
2018-07-23T20:34:25.553Z,17.9
2018-07-23T20:39:28.051Z,17.9
2018-07-23T20:44:30.398Z,17.8
2018-07-23T20:49:32.874Z,17.6
2018-07-23T20:54:35.279Z,17.6
2018-07-23T20:59:37.720Z,17.5
2018-07-23T21:04:40.229Z,17.4
2018-07-23T21:09:42.827Z,17.3
2018-07-23T21:14:45.191Z,17.1
2018-07-23T21:19:47.563Z,17
2018-07-23T21:24:50.060Z,16.9
2018-07-23T21:29:52.505Z,16.9
2018-07-23T21:34:54.872Z,16.8
2018-07-23T21:39:57.706Z,16.8
2018-07-23T21:44:59.939Z,16.6
2018-07-23T21:50:02.335Z,16.5
2018-07-23T21:55:04.633Z,16.4
2018-07-23T22:00:07.249Z,16.3
2018-07-23T22:05:09.504Z,16.2
2018-07-23T22:10:12.426Z,16
2018-07-23T22:15:14.469Z,15.9
2018-07-23T22:20:16.799Z,15.9
2018-07-23T22:25:19.307Z,15.8
2018-07-23T22:30:21.693Z,15.7
2018-07-23T22:35:24.115Z,15.6
2018-07-23T22:40:26.605Z,15.5
2018-07-23T22:45:29.036Z,15.4
2018-07-23T22:50:31.482Z,15.3
2018-07-23T22:55:33.856Z,15.2
2018-07-23T23:00:36.322Z,15.1
2018-07-23T23:05:38.832Z,14.9
2018-07-23T23:10:41.172Z,14.9
2018-07-23T23:15:43.714Z,14.8
2018-07-23T23:20:46.262Z,14.8
2018-07-23T23:25:48.489Z,14.7
2018-07-23T23:30:51.034Z,14.5
2018-07-23T23:35:53.502Z,14.5
2018-07-23T23:40:55.907Z,14.5
2018-07-23T23:45:58.356Z,14.4
2018-07-23T23:51:00.996Z,14.4
2018-07-23T23:56:03.460Z,14.3
